createdAt,value
2019-03-09T00:00:56.565Z,82.06
2019-03-09T00:03:28.544Z,82.05
2019-03-09T00:06:00.607Z,82.12
2019-03-09T00:08:32.693Z,82.41
2019-03-09T00:11:04.632Z,82.49
2019-03-09T00:13:36.666Z,82.46
2019-03-09T00:16:08.676Z,82.26
2019-03-09T00:18:40.697Z,82.45
2019-03-09T00:21:12.586Z,82.78
2019-03-09T00:24:03.332Z,83.12
2019-03-09T00:26:57.544Z,83.02
2019-03-09T00:29:51.065Z,83.48
2019-03-09T00:32:25.100Z,83.83
2019-03-09T00:34:57.050Z,83.82
2019-03-09T00:37:28.903Z,84.15
2019-03-09T00:40:00.822Z,83.87
2019-03-09T00:42:34.592Z,83.76
2019-03-09T00:45:06.663Z,83.74
2019-03-09T00:47:38.496Z,83.65
2019-03-09T00:50:11.292Z,83.44
2019-03-09T00:52:43.112Z,83.21
2019-03-09T00:55:15.201Z,83.25
2019-03-09T00:57:47.188Z,83.10
2019-03-09T01:00:21.038Z,82.94
2019-03-09T01:02:52.929Z,82.94
2019-03-09T01:05:24.807Z,82.80
2019-03-09T01:07:56.698Z,82.54
2019-03-09T01:10:28.576Z,82.38
2019-03-09T01:13:00.418Z,82.03
2019-03-09T01:15:32.367Z,81.44
2019-03-09T01:18:04.322Z,81.19
2019-03-09T01:20:36.225Z,81.03
2019-03-09T01:23:08.086Z,80.65
2019-03-09T01:25:39.948Z,80.44
2019-03-09T01:28:11.833Z,80.31
2019-03-09T01:30:43.654Z,80.03
2019-03-09T01:33:15.514Z,79.81
2019-03-09T01:35:47.537Z,80.02
2019-03-09T01:38:19.397Z,80.00
2019-03-09T01:40:51.283Z,80.87
2019-03-09T01:43:23.147Z,81.19
2019-03-09T01:45:56.075Z,81.88
2019-03-09T01:48:27.947Z,81.77
2019-03-09T01:50:59.765Z,82.11
2019-03-09T01:53:36.789Z,82.97
2019-03-09T01:56:05.347Z,83.33
2019-03-09T01:58:37.222Z,83.57
2019-03-09T02:01:09.128Z,83.65
2019-03-09T02:03:41.023Z,83.60
2019-03-09T02:06:13.094Z,83.92
2019-03-09T02:08:44.935Z,83.46
2019-03-09T02:11:16.843Z,83.27
2019-03-09T02:13:48.674Z,83.36
2019-03-09T02:16:20.703Z,82.99
2019-03-09T02:18:52.527Z,83.12
2019-03-09T02:21:25.160Z,83.06
2019-03-09T02:23:57.008Z,83.35
2019-03-09T02:26:29.052Z,83.39
2019-03-09T02:29:01.191Z,84.19
2019-03-09T02:31:33.173Z,84.13
2019-03-09T02:34:05.079Z,84.83
2019-03-09T02:36:36.926Z,85.22
2019-03-09T02:39:20.345Z,86.18
2019-03-09T02:41:52.433Z,86.24
2019-03-09T02:44:24.309Z,86.87
2019-03-09T02:46:57.295Z,87.28
2019-03-09T02:49:29.142Z,87.00
2019-03-09T02:52:01.108Z,87.46
2019-03-09T02:54:32.974Z,87.14
2019-03-09T02:57:04.847Z,86.96
2019-03-09T02:59:36.701Z,86.95
2019-03-09T03:02:30.366Z,86.50
2019-03-09T03:05:02.239Z,86.68
2019-03-09T03:07:34.189Z,86.61
2019-03-09T03:10:07.077Z,86.23
2019-03-09T03:12:38.951Z,86.08
2019-03-09T03:15:12.228Z,85.60
2019-03-09T03:17:44.066Z,85.15
2019-03-09T03:20:16.015Z,84.72
2019-03-09T03:22:47.942Z,84.55
2019-03-09T03:25:19.812Z,84.22
2019-03-09T03:27:51.682Z,83.94
2019-03-09T03:30:23.631Z,83.63
2019-03-09T03:32:56.415Z,83.65
2019-03-09T03:35:28.271Z,83.47
2019-03-09T03:38:00.150Z,83.38
2019-03-09T03:40:31.986Z,83.48
2019-03-09T03:43:03.858Z,83.63
2019-03-09T03:45:35.702Z,83.60
2019-03-09T03:48:07.551Z,83.46
2019-03-09T03:50:39.409Z,83.41
2019-03-09T03:53:11.301Z,83.56
2019-03-09T03:55:43.170Z,83.58
2019-03-09T03:58:15.235Z,83.62
2019-03-09T04:00:47.141Z,83.49
2019-03-09T04:03:19.053Z,83.01
2019-03-09T04:05:51.030Z,82.74
2019-03-09T04:08:23.174Z,82.18
2019-03-09T04:10:55.441Z,81.87
2019-03-09T04:13:27.339Z,80.90
2019-03-09T04:15:59.296Z,80.67
2019-03-09T04:18:32.425Z,80.75
2019-03-09T04:21:04.433Z,80.75
2019-03-09T04:23:36.458Z,80.83
2019-03-09T04:26:08.344Z,80.80
2019-03-09T04:28:40.338Z,80.63
2019-03-09T04:31:12.404Z,80.09
2019-03-09T04:33:44.547Z,79.98
2019-03-09T04:36:19.492Z,80.22
2019-03-09T04:38:52.803Z,80.56
2019-03-09T04:41:26.413Z,80.06
2019-03-09T04:44:02.924Z,79.95
2019-03-09T04:46:33.773Z,79.43
2019-03-09T04:49:05.738Z,78.63
2019-03-09T04:51:38.999Z,78.02
2019-03-09T04:54:10.932Z,77.91
2019-03-09T04:56:43.914Z,77.41
2019-03-09T04:59:18.348Z,76.64
2019-03-09T05:01:50.330Z,76.59
2019-03-09T05:04:55.796Z,76.38
2019-03-09T05:08:06.433Z,76.09
2019-03-09T05:11:05.167Z,75.95
2019-03-09T05:14:15.138Z,75.79
2019-03-09T05:16:48.821Z,75.56
2019-03-09T05:19:26.126Z,75.01
2019-03-09T05:22:01.449Z,74.38
2019-03-09T05:24:35.185Z,74.08
2019-03-09T05:27:07.882Z,73.00
2019-03-09T05:29:46.801Z,72.24
2019-03-09T05:32:22.458Z,71.87
2019-03-09T05:34:57.943Z,70.99
2019-03-09T05:37:42.678Z,70.41
2019-03-09T05:40:07.707Z,70.49
2019-03-09T05:42:46.798Z,70.31
2019-03-09T05:45:23.531Z,68.97
2019-03-09T05:47:55.501Z,69.10
2019-03-09T05:50:31.641Z,68.67
2019-03-09T05:53:15.685Z,68.12
2019-03-09T05:55:53.615Z,68.25
2019-03-09T05:58:27.299Z,68.77
2019-03-09T06:00:59.346Z,69.47
2019-03-09T06:03:39.597Z,69.98
2019-03-09T06:06:20.778Z,71.51
2019-03-09T06:08:56.209Z,72.05
2019-03-09T06:11:29.471Z,72.81
2019-03-09T06:14:04.300Z,72.66
2019-03-09T06:16:36.233Z,73.31
2019-03-09T06:19:08.351Z,73.64
2019-03-09T06:21:40.247Z,73.65
2019-03-09T06:24:12.165Z,73.80
2019-03-09T06:26:44.385Z,73.69
2019-03-09T06:29:16.301Z,74.01
2019-03-09T06:32:44.045Z,74.76
2019-03-09T06:35:17.893Z,75.73
2019-03-09T06:38:03.866Z,76.96
2019-03-09T06:40:48.914Z,78.43
2019-03-09T06:43:22.669Z,79.46
2019-03-09T06:45:54.911Z,80.92
2019-03-09T06:48:26.945Z,82.44
2019-03-09T06:51:00.797Z,82.62
2019-03-09T10:40:49.194Z,72.30
2019-03-09T10:43:21.020Z,71.00
2019-03-09T10:45:52.883Z,70.99
2019-03-09T10:48:25.028Z,69.94
2019-03-09T10:50:57.077Z,68.79
2019-03-09T10:53:29.040Z,67.48
2019-03-09T10:56:01.015Z,66.93
2019-03-09T10:58:33.057Z,65.44
2019-03-09T11:01:07.841Z,65.40
2019-03-09T11:03:39.954Z,62.80
2019-03-09T11:06:12.294Z,62.33
2019-03-09T11:08:46.443Z,62.01
2019-03-09T11:11:18.648Z,60.91
2019-03-09T11:13:52.165Z,60.00
2019-03-09T11:16:58.432Z,57.80
2019-03-09T11:31:28.226Z,52.84
2019-03-09T11:34:00.315Z,51.65
2019-03-09T11:36:44.135Z,49.99
2019-03-09T11:39:12.910Z,51.51
2019-03-09T11:41:45.285Z,51.73
2019-03-09T11:44:17.461Z,52.08
2019-03-09T11:46:49.556Z,50.91
2019-03-09T11:49:21.629Z,51.46
2019-03-09T11:51:55.195Z,51.33
2019-03-09T11:54:27.348Z,48.44
2019-03-09T11:56:59.504Z,49.57
2019-03-09T11:59:31.774Z,49.67
2019-03-09T12:02:04.831Z,49.48
2019-03-09T12:04:46.264Z,49.17
2019-03-09T12:07:10.729Z,49.29
2019-03-09T12:09:42.691Z,47.91
2019-03-09T12:12:14.708Z,48.70
2019-03-09T12:20:04.911Z,47.95
2019-03-09T12:22:39.951Z,47.75
2019-03-09T12:25:12.213Z,47.48
2019-03-09T12:27:44.408Z,47.64
2019-03-09T12:30:21.843Z,48.35
2019-03-09T12:33:06.438Z,48.09
2019-03-09T12:36:02.870Z,47.95
2019-03-09T12:38:39.676Z,46.60
2019-03-09T12:41:15.486Z,46.86
2019-03-09T12:48:24.446Z,45.89
2019-03-09T12:51:13.553Z,46.75
2019-03-09T12:54:38.031Z,46.78
2019-03-09T12:57:43.549Z,47.72
2019-03-09T13:00:22.066Z,46.44
2019-03-09T13:03:12.660Z,45.32
2019-03-09T13:05:56.894Z,45.38
2019-03-09T13:08:32.234Z,45.69
2019-03-09T13:11:05.336Z,46.09
2019-03-09T13:13:37.867Z,45.59
2019-03-09T13:16:10.126Z,44.38
2019-03-09T13:18:47.480Z,43.57
2019-03-09T13:21:16.221Z,44.14
2019-03-09T13:23:48.314Z,43.96
2019-03-09T13:26:20.520Z,43.75
2019-03-09T13:28:52.443Z,43.77
2019-03-09T13:31:25.542Z,44.51
2019-03-09T13:34:04.330Z,43.23
2019-03-09T13:36:42.969Z,43.88
2019-03-09T13:39:16.551Z,43.95
2019-03-09T13:41:59.790Z,43.09
2019-03-09T13:44:33.493Z,43.41
2019-03-09T13:47:08.029Z,43.20
2019-03-09T13:49:41.905Z,42.71
2019-03-09T13:52:21.704Z,43.24
2019-03-09T13:55:01.431Z,44.09
2019-03-09T13:57:38.280Z,44.57
2019-03-09T14:00:22.308Z,44.04
2019-03-09T14:02:59.330Z,43.72
2019-03-09T14:05:36.305Z,43.29
2019-03-09T14:08:16.061Z,43.99
2019-03-09T14:10:48.277Z,45.07
2019-03-09T14:13:26.367Z,45.94
2019-03-09T14:15:58.325Z,45.92
2019-03-09T14:18:30.230Z,47.01
2019-03-09T14:21:02.118Z,46.44
2019-03-09T14:23:34.018Z,47.11
2019-03-09T14:26:06.019Z,46.92
2019-03-09T14:28:37.835Z,47.32
2019-03-09T14:31:09.665Z,45.89
2019-03-09T14:33:41.657Z,46.84
2019-03-09T14:36:13.581Z,47.22
2019-03-09T14:38:45.496Z,51.14
2019-03-09T14:41:20.611Z,50.36
2019-03-09T14:43:52.485Z,51.65
2019-03-09T14:46:24.545Z,52.11
2019-03-09T14:48:58.897Z,52.49
2019-03-09T14:51:36.262Z,53.23
2019-03-09T14:54:11.135Z,53.70
2019-03-09T14:56:46.864Z,54.94
2019-03-09T14:59:28.399Z,55.58
2019-03-09T15:02:00.264Z,56.14
2019-03-09T15:05:02.505Z,54.87
2019-03-09T15:07:39.670Z,56.72
2019-03-09T15:10:19.236Z,56.55
2019-03-09T15:12:56.794Z,58.00
2019-03-09T15:15:33.878Z,58.56
2019-03-09T15:18:06.981Z,58.17
2019-03-09T15:20:42.922Z,58.85
2019-03-09T15:23:29.821Z,56.92
2019-03-09T15:26:05.599Z,57.04
2019-03-09T15:28:37.581Z,57.73
2019-03-09T15:31:20.013Z,55.93
2019-03-09T15:33:56.826Z,57.54
2019-03-09T15:36:37.482Z,56.66
2019-03-09T15:39:17.029Z,57.75
2019-03-09T15:42:16.896Z,57.55
2019-03-09T15:45:05.508Z,57.09
2019-03-09T15:47:44.973Z,58.22
2019-03-09T15:50:22.366Z,59.48
2019-03-09T15:53:38.606Z,60.17
2019-03-09T15:56:21.949Z,60.71
2019-03-09T15:58:58.089Z,61.61
2019-03-09T16:01:32.527Z,61.72
2019-03-09T16:04:11.153Z,62.71
2019-03-09T16:06:44.507Z,63.37
2019-03-09T16:09:21.070Z,63.73
2019-03-09T16:11:52.944Z,63.99
2019-03-09T16:14:24.819Z,64.00
2019-03-09T16:16:56.939Z,64.29
2019-03-09T16:19:39.896Z,64.34
2019-03-09T16:22:16.280Z,64.75
2019-03-09T16:25:01.255Z,64.71
2019-03-09T16:27:35.220Z,65.02
2019-03-09T16:30:17.297Z,65.86
2019-03-09T16:32:51.024Z,66.08
2019-03-09T16:35:33.454Z,66.58
2019-03-09T16:38:09.708Z,67.26
2019-03-09T16:40:41.872Z,68.60
2019-03-09T16:43:38.792Z,69.64
2019-03-09T16:46:14.100Z,70.16
2019-03-09T16:48:53.888Z,70.84
2019-03-09T16:51:38.276Z,71.19
2019-03-09T16:54:13.133Z,71.34
2019-03-09T16:57:15.452Z,71.32
2019-03-09T16:59:48.923Z,70.82
2019-03-09T17:02:28.232Z,70.72
2019-03-09T17:05:01.372Z,70.52
2019-03-09T17:07:43.144Z,70.62
2019-03-09T17:10:24.940Z,70.12
2019-03-09T17:13:04.808Z,69.54
2019-03-09T17:15:46.463Z,69.04
2019-03-09T17:18:42.854Z,68.12
2019-03-09T17:21:19.752Z,67.03
2019-03-09T17:23:53.088Z,65.81
2019-03-09T17:26:46.809Z,65.19
2019-03-09T17:29:35.353Z,64.81
2019-03-09T17:32:03.916Z,64.45
2019-03-09T17:34:35.925Z,64.34
2019-03-09T17:37:12.291Z,64.43
2019-03-09T17:39:48.669Z,64.51
2019-03-09T17:43:06.530Z,64.62
2019-03-09T17:45:48.849Z,64.84
2019-03-09T17:48:41.253Z,65.47
2019-03-09T17:51:19.414Z,65.28
2019-03-09T17:54:00.339Z,65.68
2019-03-09T17:56:49.022Z,66.27
2019-03-09T17:59:30.764Z,67.75
2019-03-09T18:05:01.869Z,70.58
2019-03-09T18:07:45.217Z,78.17
2019-03-09T18:10:39.981Z,80.49
2019-03-09T18:13:21.680Z,80.91
2019-03-09T18:15:55.701Z,82.73
2019-03-09T18:21:26.893Z,85.98
2019-03-09T18:24:02.687Z,89.67
2019-03-09T18:26:51.978Z,91.85
2019-03-09T18:29:32.017Z,92.58
2019-03-09T18:32:15.412Z,93.83
2019-03-09T18:34:49.413Z,94.46
2019-03-09T18:37:33.991Z,95.72
2019-03-09T18:40:05.453Z,96.81
2019-03-09T18:42:37.385Z,98.05
2019-03-09T18:45:15.891Z,98.77
2019-03-09T18:47:54.777Z,99.56
2019-03-09T18:50:31.867Z,100.00
2019-03-09T18:53:13.109Z,100.00
2019-03-09T18:55:58.857Z,100.00
2019-03-09T18:58:27.732Z,100.00
2019-03-09T19:01:05.228Z,100.00
2019-03-09T19:03:39.736Z,100.00
2019-03-09T19:06:11.679Z,100.00
2019-03-09T19:09:03.687Z,100.00
2019-03-09T19:11:38.179Z,100.00
2019-03-09T19:14:17.247Z,100.00
2019-03-09T19:16:48.674Z,100.00
2019-03-09T19:19:21.393Z,100.00
2019-03-09T19:21:53.721Z,100.00
2019-03-09T19:24:25.658Z,100.00
2019-03-09T19:26:58.020Z,100.00
2019-03-09T19:29:30.182Z,100.00
2019-03-09T19:32:02.287Z,100.00
2019-03-09T19:34:42.770Z,100.00
2019-03-09T19:37:17.578Z,100.00
2019-03-09T19:39:56.479Z,100.00
2019-03-09T19:42:32.893Z,100.00
2019-03-09T19:45:08.915Z,100.00
2019-03-09T19:47:53.754Z,100.00
2019-03-09T19:50:30.338Z,100.00
2019-03-09T19:53:09.899Z,100.00
2019-03-09T19:55:47.314Z,98.83
2019-03-09T19:58:22.726Z,99.76
2019-03-09T20:01:05.097Z,98.78
2019-03-09T20:03:38.709Z,98.43
2019-03-09T20:06:11.921Z,97.46
2019-03-09T20:08:44.055Z,96.17
2019-03-09T20:11:16.726Z,95.74
2019-03-09T20:13:48.916Z,95.70
2019-03-09T20:16:20.931Z,95.51
2019-03-09T20:18:55.304Z,94.23
2019-03-09T20:21:27.246Z,93.73
2019-03-09T20:24:00.314Z,92.23
2019-03-09T20:26:33.616Z,92.91
2019-03-09T20:29:06.031Z,92.90
2019-03-09T20:31:38.165Z,93.04
2019-03-09T20:34:16.851Z,92.59
2019-03-09T20:36:45.967Z,92.47
2019-03-09T20:39:20.814Z,91.31
2019-03-09T20:41:53.047Z,90.89
2019-03-09T20:44:25.410Z,90.33
2019-03-09T20:47:01.124Z,89.90
2019-03-09T20:49:32.957Z,89.95
2019-03-09T20:52:11.970Z,89.36
2019-03-09T20:54:44.110Z,88.57
2019-03-09T20:57:18.257Z,87.63
2019-03-09T20:59:52.027Z,87.08
2019-03-09T21:02:25.256Z,86.64
2019-03-09T21:04:57.327Z,86.41
2019-03-09T21:07:29.235Z,85.85
2019-03-09T21:10:01.362Z,86.01
2019-03-09T21:12:33.354Z,85.65
2019-03-09T21:15:05.690Z,85.75
2019-03-09T21:17:37.729Z,85.04
2019-03-09T21:20:09.757Z,84.84
2019-03-09T21:22:41.922Z,84.04
2019-03-09T21:25:13.916Z,83.66
2019-03-09T21:27:45.995Z,83.87
2019-03-09T21:30:17.942Z,82.83
2019-03-09T21:32:49.966Z,82.19
2019-03-09T21:35:21.837Z,81.67
2019-03-09T21:37:55.673Z,81.50
2019-03-09T21:40:27.711Z,80.55
2019-03-09T21:43:01.621Z,80.15
2019-03-09T21:45:33.775Z,80.02
2019-03-09T21:48:06.022Z,80.04
2019-03-09T21:50:50.405Z,79.83
2019-03-09T21:53:26.600Z,78.19
2019-03-09T21:55:58.724Z,78.62
2019-03-09T21:58:30.931Z,78.67
2019-03-09T22:01:03.130Z,77.97
2019-03-09T22:03:38.020Z,76.40
2019-03-09T22:06:12.786Z,76.08
2019-03-09T22:08:46.931Z,75.81
2019-03-09T22:11:23.027Z,75.71
2019-03-09T22:13:55.719Z,74.80
2019-03-09T22:16:28.196Z,71.91
2019-03-09T22:19:02.596Z,66.77
2019-03-09T22:21:34.683Z,64.96
2019-03-09T22:24:06.635Z,63.17
2019-03-09T22:26:38.693Z,63.58
2019-03-09T22:29:10.855Z,64.64
2019-03-09T22:31:42.826Z,65.61
2019-03-09T22:34:14.938Z,66.86
2019-03-09T22:36:47.062Z,66.06
2019-03-09T22:39:19.185Z,65.82
2019-03-09T22:41:51.156Z,66.13
2019-03-09T22:44:23.208Z,66.69
2019-03-09T22:46:55.820Z,67.87
2019-03-09T22:49:27.887Z,68.14
2019-03-09T22:51:59.939Z,66.95
2019-03-09T22:54:31.913Z,66.73
2019-03-09T22:57:03.862Z,65.09
2019-03-09T22:59:35.781Z,65.76
2019-03-09T23:02:08.069Z,67.26
2019-03-09T23:04:40.032Z,68.71
2019-03-09T23:07:11.955Z,70.14
2019-03-09T23:09:43.832Z,70.10
2019-03-09T23:12:15.662Z,70.18
2019-03-09T23:14:47.554Z,69.66
2019-03-09T23:17:19.689Z,69.54
2019-03-09T23:19:51.624Z,68.31
2019-03-09T23:22:23.657Z,67.98
2019-03-09T23:24:55.563Z,67.36
2019-03-09T23:27:27.450Z,67.58
2019-03-09T23:29:59.462Z,67.65
2019-03-09T23:32:31.471Z,66.76
2019-03-09T23:35:03.348Z,66.88
2019-03-09T23:37:35.359Z,67.73
2019-03-09T23:40:08.373Z,68.62
2019-03-09T23:42:40.189Z,69.33
2019-03-09T23:45:13.890Z,69.63
2019-03-09T23:47:46.148Z,69.12
2019-03-09T23:50:18.794Z,68.72
2019-03-09T23:52:51.424Z,69.22
2019-03-09T23:55:23.489Z,69.25
2019-03-09T23:57:55.418Z,70.36
